CYHD

Dryden Regional Airport

Dryden, Ontario, Canada
METAR CYHD 161200Z AUTO 25011G19KT 9SM FEW031 00/M02 A2971 RMK SLP082
Observed Flight Rules
Dec-16 @ 12:00 UTC (46 minutes ago) Visual Flight Rules
Wind Visibility Clouds
250° at 11 knots
 Gusting to 19 knots
9 miles
  • Few at 3,100' AGL
Temperatures Readings
Current 0°C / 32°F
Dewpoint -2°C / 28°F
Humidity 87%
Altimeter 29.71" Hg
Pressure 1008.2 hPa
Elevation 413
METAR CYHD 161200Z AUTO 25011G19KT 9SM FEW031 00/M02 A2971 RMK SLP082
Observed Flight Rules
Dec-16 @ 12:00 UTC
(46 minutes ago)
VFR
Wind Visibility
250° at 11 knots
 Gusting to 19 knots
9 miles
Clouds
  • Few at 3,100' AGL
Temperature Dewpoint
0°C / 32°F -2°C / 28°F
Humidity Altimeter Pressure
87% 29.71" Hg 1008.2 hPa